Hoffman, Illinois
Current Conditions -  °F | °C
As of 1:55 AM on Friday 31 Oct 2014 (Local Time) from KENL Reporting Station
Overcast Overcast  
Wind Chill: 46°   Ceiling: 5000
Heat Index: 48°   Visibility: 10mi
Dew Point: 44°   Wind: 5mph
Humidity: 87%   Direction: 80°E
Pressure: 30.04"   Gusts: NA
Location:  38.54°N, 89.26°W
Report Text: KENL 310655Z AUTO 08004KT 10SM OVC050 09/07 A3004 RMK AO2 T00900069
Loading
Personal Weather Stations






























Interactive Weather Map
Tropical Storm Tracking
New forecast layout! Learn more

10-Day Weather Forecast

Advertisements
Track Severe Weather on mobile